Time;durP1;ratioP1;P1;durP2;ratioP2;P2;SDS_P1;SDS_P2;PMS_P1;PMS_P2;Temp;Humidity;BMP_temperature;BMP_pressure;BME280_temperature;BME280_humidity;BME280_pressure;Samples;Min_cycle;Max_cycle;Signal;HPM_P1;HPM_P2
2023/04/21 00:00:08;;;;;;;10.32;7.05;;;;;;;11.61;58.02;94226.81;4275991;27;20061;-61
2023/04/21 00:02:14;;;;;;;;;;;;;;;11.65;57.84;94232.53;4276730;27;20463;-61
2023/04/21 00:04:16;;;;;;;9.60;7.45;;;;;;;11.62;58.02;94232.91;4273326;27;19940;-59
2023/04/21 00:06:21;;;;;;;14.38;8.25;;;;;;;11.55;58.13;94224.09;4275517;27;20385;-60
2023/04/21 00:08:25;;;;;;;11.52;6.93;;;;;;;11.58;58.08;94234.25;4264325;27;20137;-60
2023/04/21 00:10:26;;;;;;;10.65;6.97;;;;;;;11.56;57.98;94229.19;4264326;27;20511;-61
2023/04/21 00:12:28;;;;;;;11.05;6.85;;;;;;;11.57;57.88;94225.56;4261591;27;20510;-59
2023/04/21 00:14:30;;;;;;;11.05;6.63;;;;;;;11.54;57.77;94227.72;4249075;27;20101;-60
2023/04/21 00:16:31;;;;;;;11.90;7.05;;;;;;;11.54;57.98;94225.91;4248958;27;20806;-59
2023/04/21 00:18:33;;;;;;;9.93;7.22;;;;;;;11.57;57.75;94224.75;4249632;27;20427;-60
2023/04/21 00:20:35;;;;;;;14.48;7.18;;;;;;;11.53;57.85;94223.47;4262948;27;20058;-61
2023/04/21 00:22:37;;;;;;;11.38;6.85;;;;;;;11.56;57.74;94223.13;4262464;27;20050;-60
2023/04/21 00:24:39;;;;;;;11.45;7.00;;;;;;;11.55;57.92;94226.72;4252170;27;20039;-61
2023/04/21 00:26:40;;;;;;;12.15;6.50;;;;;;;11.53;57.99;94223.47;4259121;27;20074;-61
2023/04/21 00:28:42;;;;;;;11.70;7.07;;;;;;;11.53;58.01;94226.06;4255810;27;20042;-57
2023/04/21 00:30:44;;;;;;;9.82;6.63;;;;;;;11.53;58.15;94221.66;4253161;27;20070;-61
2023/04/21 00:32:45;;;;;;;11.07;6.80;;;;;;;11.47;58.08;94220.56;4252111;27;20043;-59
2023/04/21 00:34:47;;;;;;;10.43;6.78;;;;;;;11.42;58.29;94222.91;4259493;27;20424;-58
2023/04/21 00:36:48;;;;;;;13.13;6.65;;;;;;;11.44;58.09;94228.78;4253695;27;20073;-58
2023/04/21 00:38:50;;;;;;;9.23;6.72;;;;;;;11.44;58.02;94234.03;4253889;27;20069;-59
2023/04/21 00:40:52;;;;;;;10.90;6.90;;;;;;;11.36;58.25;94234.09;4257655;27;20050;-60
2023/04/21 00:42:53;;;;;;;9.75;7.38;;;;;;;11.37;58.14;94237.53;4249165;27;20071;-59
2023/04/21 00:44:55;;;;;;;12.55;7.13;;;;;;;11.37;58.13;94224.41;4263206;27;20055;-59
2023/04/21 00:46:57;;;;;;;9.00;6.70;;;;;;;11.40;57.87;94224.03;4249085;27;20051;-58
2023/04/21 00:48:59;;;;;;;9.18;6.63;;;;;;;11.46;57.86;94233.84;4257529;27;20039;-59
2023/04/21 00:51:01;;;;;;;12.40;6.50;;;;;;;11.46;57.68;94224.19;4261809;27;20074;-59
2023/04/21 00:53:03;;;;;;;10.05;6.38;;;;;;;11.43;57.87;94218.47;4250398;27;20079;-58
2023/04/21 00:55:05;;;;;;;10.57;6.60;;;;;;;11.44;57.77;94215.69;4253238;27;20074;-60
2023/04/21 00:57:08;;;;;;;7.97;6.32;;;;;;;11.52;57.65;94213.97;4254143;27;20054;-60
2023/04/21 00:59:10;;;;;;;9.68;6.82;;;;;;;11.50;57.40;94214.13;4252160;27;20047;-60
2023/04/21 01:01:12;;;;;;;10.93;7.38;;;;;;;11.48;57.20;94208.25;4262130;27;20070;-60
2023/04/21 01:03:14;;;;;;;9.20;6.72;;;;;;;11.44;57.39;94207.81;4257046;27;20057;-62
2023/04/21 01:05:17;;;;;;;8.02;6.38;;;;;;;11.41;57.50;94213.38;4260309;27;20042;-60
2023/04/21 01:07:19;;;;;;;9.30;6.55;;;;;;;11.38;57.52;94218.16;4262010;27;20076;-58
2023/04/21 01:09:20;;;;;;;11.27;6.85;;;;;;;11.34;57.56;94209.84;4262507;27;20129;-59
2023/04/21 01:11:22;;;;;;;12.55;6.05;;;;;;;11.34;57.53;94206.41;4262583;27;20088;-61
2023/04/21 01:13:24;;;;;;;11.73;6.88;;;;;;;11.30;57.67;94213.81;4262069;27;20099;-61
2023/04/21 01:15:29;;;;;;;7.65;6.32;;;;;;;11.26;57.70;94213.34;4263517;27;20099;-59
2023/04/21 01:17:31;;;;;;;12.18;6.63;;;;;;;11.23;57.70;94213.69;4263242;27;20439;-61
2023/04/21 01:19:38;;;;;;;9.13;6.00;;;;;;;11.23;57.88;94213.69;4263003;27;20049;-61
2023/04/21 01:21:40;;;;;;;10.40;5.95;;;;;;;11.17;57.72;94213.59;4262705;27;20412;-62
2023/04/21 01:23:42;;;;;;;10.50;6.43;;;;;;;11.17;57.79;94224.88;4261088;27;20134;-63
2023/04/21 01:25:43;;;;;;;8.32;6.18;;;;;;;11.25;57.74;94216.16;4263695;27;20130;-61
2023/04/21 01:27:45;;;;;;;9.07;6.07;;;;;;;11.27;57.71;94211.53;4261796;27;20047;-59
2023/04/21 01:29:51;;;;;;;13.02;6.53;;;;;;;11.24;57.68;94204.81;4262769;27;20050;-60
2023/04/21 01:31:53;;;;;;;8.13;6.65;;;;;;;11.24;57.95;94207.44;4262375;27;20142;-61
2023/04/21 01:33:54;;;;;;;11.23;6.68;;;;;;;11.27;57.73;94203.66;4257958;27;20069;-60
2023/04/21 01:35:56;;;;;;;10.13;5.82;;;;;;;11.25;57.63;94206.47;4255301;27;20467;-59
2023/04/21 01:37:58;;;;;;;8.20;5.88;;;;;;;11.17;57.98;94198.66;4249023;27;20075;-60
2023/04/21 01:40:04;;;;;;;9.55;6.70;;;;;;;11.20;57.85;94197.50;4261836;27;20057;-60
2023/04/21 01:42:06;;;;;;;9.50;6.15;;;;;;;11.26;57.56;94199.41;4260404;27;20083;-60
2023/04/21 01:44:07;;;;;;;8.27;6.20;;;;;;;11.18;57.49;94202.09;4263185;27;20474;-61
2023/04/21 01:46:09;;;;;;;8.80;6.15;;;;;;;11.18;57.58;94194.22;4262583;27;20043;-59
2023/04/21 01:48:11;;;;;;;8.32;6.10;;;;;;;11.19;57.54;94201.94;4262443;27;20141;-60
2023/04/21 01:50:13;;;;;;;10.15;6.72;;;;;;;11.18;57.42;94196.84;4256383;27;20522;-60
2023/04/21 01:52:14;;;;;;;11.48;6.40;;;;;;;11.15;57.49;94194.59;4255933;27;20053;-61
2023/04/21 01:54:16;;;;;;;8.07;6.05;;;;;;;11.16;57.73;94196.19;4261286;27;20050;-60
2023/04/21 01:56:18;;;;;;;8.18;6.32;;;;;;;11.16;57.53;94199.63;4248855;27;20423;-61
2023/04/21 01:58:20;;;;;;;9.32;6.40;;;;;;;11.14;57.42;94199.03;4261652;27;20096;-62
2023/04/21 02:00:22;;;;;;;9.00;6.18;;;;;;;11.12;57.64;94189.69;4262963;27;20451;-60
2023/04/21 02:02:24;;;;;;;9.55;5.60;;;;;;;11.08;57.65;94197.09;4260180;27;20110;-59
2023/04/21 02:04:26;;;;;;;11.20;6.45;;;;;;;11.10;57.63;94195.13;4249157;27;20054;-59
2023/04/21 02:06:28;;;;;;;8.63;6.75;;;;;;;11.11;57.52;94198.53;4260762;27;20065;-59
2023/04/21 02:08:30;;;;;;;9.25;6.80;;;;;;;11.13;57.62;94201.81;4261582;27;20679;-60
2023/04/21 02:10:32;;;;;;;9.07;5.80;;;;;;;11.11;57.57;94201.97;4261126;27;20047;-61
2023/04/21 02:12:34;;;;;;;7.60;5.93;;;;;;;11.10;57.76;94204.75;4260453;27;20051;-59
2023/04/21 02:14:36;;;;;;;10.00;7.07;;;;;;;11.12;57.71;94202.78;4262085;27;20076;-61
2023/04/21 02:16:38;;;;;;;8.70;6.63;;;;;;;11.05;57.78;94203.47;4253412;27;20094;-60
2023/04/21 02:18:40;;;;;;;9.38;6.28;;;;;;;11.02;57.82;94198.59;4258049;27;20051;-59
2023/04/21 02:20:41;;;;;;;9.02;6.88;;;;;;;11.06;57.94;94204.31;4261799;27;20620;-61
2023/04/21 02:22:43;;;;;;;10.02;6.55;;;;;;;11.07;57.59;94200.69;4260475;27;20112;-61
2023/04/21 02:24:45;;;;;;;8.90;5.90;;;;;;;11.09;57.91;94200.53;4261491;27;20133;-60
2023/04/21 02:26:46;;;;;;;13.70;7.03;;;;;;;11.07;57.76;94198.06;4259224;27;20051;-62
2023/04/21 02:28:49;;;;;;;8.35;6.80;;;;;;;11.04;57.85;94198.44;4259315;27;20065;-61
2023/04/21 02:30:50;;;;;;;9.88;6.65;;;;;;;11.06;57.88;94199.88;4262255;27;20072;-62
2023/04/21 02:32:52;;;;;;;10.40;6.68;;;;;;;11.08;57.70;94199.72;4261699;27;20519;-65
2023/04/21 02:34:54;;;;;;;11.43;7.00;;;;;;;11.03;58.03;94200.25;4260683;27;20568;-61
2023/04/21 02:36:56;;;;;;;9.95;6.78;;;;;;;11.05;57.99;94195.59;4261343;27;20039;-60
2023/04/21 02:38:58;;;;;;;9.73;7.32;;;;;;;11.05;58.30;94198.22;4262161;27;20057;-60
2023/04/21 02:41:00;;;;;;;8.07;6.95;;;;;;;10.99;58.49;94191.09;4262075;27;20060;-60
2023/04/21 02:43:02;;;;;;;9.90;6.47;;;;;;;11.01;58.39;94198.75;4259263;27;20091;-60
2023/04/21 02:45:04;;;;;;;8.32;6.75;;;;;;;11.02;58.47;94201.22;4261779;27;20054;-59
2023/04/21 02:47:05;;;;;;;9.70;6.82;;;;;;;11.01;58.53;94201.38;4261123;27;20080;-62
2023/04/21 02:49:08;;;;;;;9.20;6.65;;;;;;;10.97;58.43;94193.06;4261056;27;20057;-59
2023/04/21 02:51:13;;;;;;;10.38;6.80;;;;;;;11.02;58.56;94213.50;4260323;27;20054;-60
2023/04/21 02:53:15;;;;;;;10.73;6.93;;;;;;;11.02;58.35;94203.84;4260290;27;20043;-60
2023/04/21 02:55:17;;;;;;;11.38;7.22;;;;;;;10.97;58.69;94203.56;4261039;27;20047;-61
2023/04/21 02:57:19;;;;;;;10.80;6.93;;;;;;;11.07;58.63;94209.34;4247977;27;20051;-60
2023/04/21 02:59:20;;;;;;;9.23;6.55;;;;;;;11.02;58.44;94216.13;4257942;27;21354;-60
2023/04/21 03:01:22;;;;;;;9.90;5.90;;;;;;;11.10;58.40;94207.38;4256096;27;20089;-60
2023/04/21 03:03:24;;;;;;;9.63;6.47;;;;;;;11.05;58.65;94213.97;4255086;27;20047;-61
2023/04/21 03:05:26;;;;;;;9.88;6.68;;;;;;;11.09;58.38;94209.19;4258172;27;20474;-62
2023/04/21 03:07:28;;;;;;;9.63;7.05;;;;;;;11.15;58.50;94207.69;4259586;27;20050;-60
2023/04/21 03:09:30;;;;;;;9.93;6.93;;;;;;;11.19;58.39;94207.16;4249003;27;20051;-62
2023/04/21 03:11:31;;;;;;;8.43;6.65;;;;;;;11.18;58.13;94208.13;4260368;27;20051;-60
2023/04/21 03:13:33;;;;;;;10.63;6.55;;;;;;;11.18;58.14;94208.13;4251999;27;20396;-60
2023/04/21 03:15:34;;;;;;;11.93;6.82;;;;;;;11.17;58.48;94208.34;4258850;27;20046;-60
2023/04/21 03:17:36;;;;;;;10.48;7.22;;;;;;;11.17;58.33;94203.91;4261932;27;20121;-60
2023/04/21 03:19:38;;;;;;;7.80;6.15;;;;;;;11.22;58.15;94213.88;4262118;27;20514;-63
2023/04/21 03:21:39;;;;;;;10.15;6.65;;;;;;;11.18;58.22;94202.09;4261886;27;20051;-62
2023/04/21 03:23:41;;;;;;;10.38;7.03;;;;;;;11.14;58.43;94204.25;4261108;27;20110;-62
2023/04/21 03:25:42;;;;;;;13.88;6.22;;;;;;;11.19;58.13;94207.16;4261330;27;20042;-60
2023/04/21 03:27:44;;;;;;;9.80;6.25;;;;;;;11.20;57.90;94218.47;4259836;27;20535;-59
2023/04/21 03:29:46;;;;;;;10.07;6.85;;;;;;;11.21;57.91;94207.81;4261576;27;20092;-61
2023/04/21 03:31:47;;;;;;;8.27;6.47;;;;;;;11.24;57.74;94204.81;4260674;27;20078;-62
2023/04/21 03:33:49;;;;;;;7.95;6.13;;;;;;;11.25;57.79;94208.28;4262328;27;20049;-59
2023/04/21 03:35:51;;;;;;;9.70;7.20;;;;;;;11.24;57.82;94206.63;4262157;27;20042;-59
2023/04/21 03:37:52;;;;;;;11.75;6.43;;;;;;;11.27;58.07;94207.13;4261646;27;20046;-61
2023/04/21 03:39:54;;;;;;;10.85;6.72;;;;;;;11.25;57.80;94221.41;4261078;27;20050;-60
2023/04/21 03:41:56;;;;;;;10.52;7.10;;;;;;;11.26;58.01;94217.78;4255656;27;20046;-60
2023/04/21 03:43:58;;;;;;;10.57;7.30;;;;;;;11.27;58.03;94214.97;4255718;27;20426;-61
2023/04/21 03:45:59;;;;;;;8.70;6.50;;;;;;;11.24;57.86;94215.31;4264380;27;20046;-61
2023/04/21 03:48:02;;;;;;;10.07;7.13;;;;;;;11.19;57.91;94217.66;4263415;27;20039;-60
2023/04/21 03:50:04;;;;;;;12.98;7.00;;;;;;;11.18;58.22;94216.00;4264757;27;20503;-61
2023/04/21 03:52:06;;;;;;;10.85;7.65;;;;;;;11.19;58.11;94222.91;4264583;27;20050;-61
2023/04/21 03:54:08;;;;;;;10.27;6.97;;;;;;;11.15;58.21;94218.19;4264702;27;20062;-62
2023/04/21 03:56:09;;;;;;;9.98;6.65;;;;;;;11.21;57.98;94227.97;4264274;27;20051;-60
2023/04/21 03:58:11;;;;;;;11.30;6.50;;;;;;;11.26;58.04;94230.88;4261819;27;20099;-60
2023/04/21 04:00:13;;;;;;;8.75;6.28;;;;;;;11.30;57.79;94228.72;4264846;27;20062;-60
2023/04/21 04:02:14;;;;;;;9.48;7.30;;;;;;;11.34;57.94;94224.78;4263589;27;20472;-62
2023/04/21 04:04:16;;;;;;;11.30;7.20;;;;;;;11.33;57.67;94234.44;4262702;27;20042;-62
2023/04/21 04:06:18;;;;;;;12.70;7.57;;;;;;;11.39;57.42;94236.34;4263968;27;20054;-61
2023/04/21 04:08:20;;;;;;;14.63;7.65;;;;;;;11.40;57.61;94240.63;4264337;27;20053;-63
2023/04/21 04:10:22;;;;;;;8.68;7.13;;;;;;;11.40;57.41;94239.78;4263581;27;20491;-62
2023/04/21 04:12:23;;;;;;;12.13;7.25;;;;;;;11.41;57.29;94242.25;4249344;27;20077;-62
2023/04/21 04:14:25;;;;;;;11.32;7.68;;;;;;;11.42;57.42;94243.03;4264419;27;20559;-62
2023/04/21 04:16:27;;;;;;;9.52;7.00;;;;;;;11.48;57.21;94237.09;4264433;27;20103;-61
2023/04/21 04:18:29;;;;;;;9.65;7.70;;;;;;;11.50;57.23;94245.63;4253177;27;20415;-62
2023/04/21 04:20:31;;;;;;;10.13;7.25;;;;;;;11.47;57.23;94256.47;4260041;27;20050;-62
2023/04/21 04:22:34;;;;;;;12.23;7.95;;;;;;;11.45;57.23;94251.38;4251849;27;20492;-63
2023/04/21 04:24:36;;;;;;;14.47;7.70;;;;;;;11.46;57.27;94260.06;4264506;27;20509;-62
2023/04/21 04:26:38;;;;;;;8.82;6.70;;;;;;;11.47;57.21;94248.59;4250879;27;20178;-62
2023/04/21 04:28:41;;;;;;;12.48;7.70;;;;;;;11.37;57.71;94251.44;4247395;27;20047;-61
2023/04/21 04:30:42;;;;;;;9.80;7.53;;;;;;;11.44;57.32;94262.06;4253769;27;20053;-64
2023/04/21 04:32:44;;;;;;;11.32;7.85;;;;;;;11.41;57.49;94255.34;4264387;27;20047;-64
2023/04/21 04:34:46;;;;;;;9.10;6.88;;;;;;;11.44;57.33;94262.88;4264719;27;20047;-64
2023/04/21 04:36:49;;;;;;;10.35;7.13;;;;;;;11.46;57.40;94260.91;4262597;27;20070;-62
2023/04/21 04:38:50;;;;;;;9.43;6.78;;;;;;;11.52;57.19;94263.81;4263874;27;20129;-61
2023/04/21 04:40:53;;;;;;;9.75;7.05;;;;;;;11.59;56.97;94265.53;4264440;27;20154;-63
2023/04/21 04:42:55;;;;;;;10.52;8.27;;;;;;;11.63;57.18;94266.81;4262409;27;20046;-61
2023/04/21 04:44:58;;;;;;;12.15;7.97;;;;;;;11.65;57.09;94264.03;4260820;27;20039;-62
2023/04/21 04:47:00;;;;;;;10.93;7.60;;;;;;;11.67;57.05;94264.69;4247314;27;20449;-58
2023/04/21 04:49:02;;;;;;;13.55;7.65;;;;;;;11.72;57.11;94267.56;4258034;27;20275;-61
2023/04/21 04:51:04;;;;;;;13.38;8.07;;;;;;;11.78;56.68;94264.25;4249412;27;20058;-60
2023/04/21 04:53:06;;;;;;;11.73;7.32;;;;;;;11.86;56.63;94266.81;4249048;27;20047;-61
2023/04/21 04:55:08;;;;;;;12.82;7.30;;;;;;;11.88;56.54;94277.16;4264131;27;20051;-61
2023/04/21 04:57:09;;;;;;;11.05;7.80;;;;;;;11.83;56.57;94272.41;4250576;27;20127;-64
2023/04/21 04:59:11;;;;;;;12.27;7.50;;;;;;;11.85;56.64;94272.22;4259883;27;20046;-60
2023/04/21 05:01:14;;;;;;;12.27;7.68;;;;;;;11.93;56.13;94272.19;4250373;27;20078;-61
2023/04/21 05:03:16;;;;;;;10.85;7.47;;;;;;;11.88;56.55;94277.97;4254751;27;20050;-63
2023/04/21 05:05:19;;;;;;;11.70;7.63;;;;;;;11.87;56.82;94278.13;4258799;27;20157;-62
2023/04/21 05:07:20;;;;;;;14.63;7.65;;;;;;;11.79;57.06;94271.13;4251052;27;20082;-61
2023/04/21 05:09:22;;;;;;;11.10;7.40;;;;;;;11.82;56.99;94276.03;4249521;27;20039;-62
2023/04/21 05:11:24;;;;;;;15.63;7.63;;;;;;;11.88;57.16;94270.09;4262117;27;20049;-60
2023/04/21 05:13:26;;;;;;;16.02;8.75;;;;;;;12.00;56.36;94277.53;4254331;27;20077;-62
2023/04/21 05:15:27;;;;;;;11.30;8.20;;;;;;;12.05;56.59;94275.22;4247278;27;20461;-60
2023/04/21 05:17:29;;;;;;;10.98;7.50;;;;;;;12.07;56.28;94273.22;4250321;27;20050;-60
2023/04/21 05:19:35;;;;;;;11.07;7.82;;;;;;;12.13;56.49;94277.78;4257465;27;20118;-62
2023/04/21 05:21:36;;;;;;;15.77;7.47;;;;;;;12.11;56.50;94274.50;4247718;27;20492;-62
2023/04/21 05:23:38;;;;;;;10.80;7.82;;;;;;;12.11;56.43;94277.13;4247431;27;20577;-61
2023/04/21 05:25:40;;;;;;;11.20;7.50;;;;;;;12.11;56.59;94274.50;4247708;27;20239;-62
2023/04/21 05:27:42;;;;;;;11.02;6.97;;;;;;;12.20;56.23;94277.88;4246688;27;20075;-61
2023/04/21 05:29:44;;;;;;;8.30;6.55;;;;;;;12.14;56.52;94274.13;4248007;27;20042;-61
2023/04/21 05:31:45;;;;;;;10.95;7.82;;;;;;;12.05;57.20;94275.22;4249203;27;20108;-62
2023/04/21 05:33:47;;;;;;;8.52;7.40;;;;;;;12.06;56.93;94274.22;4251936;27;20467;-62
2023/04/21 05:35:49;;;;;;;8.70;7.22;;;;;;;12.12;56.78;94276.13;4256295;27;20477;-62
2023/04/21 05:37:50;;;;;;;11.45;7.05;;;;;;;12.12;56.87;94284.00;4247195;27;20039;-63
2023/04/21 05:39:52;;;;;;;12.73;7.78;;;;;;;12.10;56.98;94278.13;4248300;27;20054;-63
2023/04/21 05:41:54;;;;;;;10.00;7.55;;;;;;;11.88;57.56;94279.78;4262245;27;20063;-62
2023/04/21 05:43:55;;;;;;;10.45;7.63;;;;;;;12.00;57.74;94282.78;4262945;27;20071;-62
2023/04/21 05:45:57;;;;;;;11.50;7.97;;;;;;;11.94;57.75;94289.59;4263181;27;20057;-60
2023/04/21 05:47:59;;;;;;;11.45;7.93;;;;;;;11.99;57.98;94279.34;4250015;27;20686;-60
2023/04/21 05:50:00;;;;;;;12.20;7.68;;;;;;;11.98;57.42;94274.28;4258863;27;20474;-61
2023/04/21 05:52:02;;;;;;;10.75;7.25;;;;;;;12.07;57.30;94281.09;4247041;27;20047;-62
2023/04/21 05:54:04;;;;;;;10.68;8.15;;;;;;;12.24;57.08;94282.59;4258415;27;20431;-59
2023/04/21 05:56:07;;;;;;;9.95;7.50;;;;;;;12.40;56.69;94278.97;4248957;27;20066;-60
2023/04/21 05:58:09;;;;;;;10.48;6.90;;;;;;;12.53;56.35;94278.34;4245635;27;20617;-62
2023/04/21 06:00:11;;;;;;;11.48;7.88;;;;;;;12.63;56.34;94276.25;4255439;27;20099;-61
2023/04/21 06:02:13;;;;;;;12.52;7.68;;;;;;;12.70;56.11;94278.97;4263110;27;20069;-63
2023/04/21 06:04:15;;;;;;;13.40;7.60;;;;;;;12.66;56.03;94275.88;4247785;27;20054;-62
2023/04/21 06:06:17;;;;;;;9.75;7.00;;;;;;;12.70;55.81;94269.25;4249245;27;20061;-60
2023/04/21 06:08:19;;;;;;;10.02;7.60;;;;;;;12.82;56.06;94276.69;4261972;27;20713;-62
2023/04/21 06:10:20;;;;;;;14.60;7.80;;;;;;;12.55;56.52;94276.34;4262290;27;20129;-62
2023/04/21 06:12:22;;;;;;;11.75;7.90;;;;;;;12.42;56.86;94265.66;4258997;27;20047;-61
2023/04/21 06:14:24;;;;;;;11.27;7.55;;;;;;;12.44;57.09;94266.28;4255333;27;20139;-64
2023/04/21 06:16:25;;;;;;;10.60;8.43;;;;;;;12.59;56.73;94269.72;4252334;27;20051;-63
2023/04/21 06:18:27;;;;;;;11.68;7.38;;;;;;;12.77;56.72;94271.97;4257851;27;20544;-62
2023/04/21 06:20:29;;;;;;;12.95;8.07;;;;;;;13.00;55.74;94263.97;4261308;27;20082;-63
2023/04/21 06:22:31;;;;;;;14.07;7.50;;;;;;;13.03;55.73;94268.84;4262381;27;20646;-61
2023/04/21 06:24:33;;;;;;;11.18;7.00;;;;;;;13.30;55.60;94271.81;4262523;27;20050;-63
2023/04/21 06:26:35;;;;;;;11.13;7.82;;;;;;;13.34;54.71;94274.91;4260317;27;20051;-60
2023/04/21 06:28:38;;;;;;;9.95;7.43;;;;;;;13.23;55.08;94276.19;4260803;27;20042;-63
2023/04/21 06:30:39;;;;;;;13.65;7.28;;;;;;;13.19;55.32;94274.91;4250804;27;20050;-61
2023/04/21 06:32:41;;;;;;;10.23;7.38;;;;;;;13.23;55.02;94277.00;4261794;27;20565;-63
2023/04/21 06:34:43;;;;;;;11.20;7.40;;;;;;;13.37;54.86;94262.19;4261275;27;20046;-60
2023/04/21 06:36:44;;;;;;;21.92;8.48;;;;;;;13.09;55.46;94262.03;4260998;27;20484;-61
2023/04/21 06:38:46;;;;;;;12.52;7.75;;;;;;;13.44;55.38;94264.88;4262591;27;20064;-62
2023/04/21 06:40:48;;;;;;;10.27;7.13;;;;;;;13.63;54.72;94258.97;4262614;27;20119;-62
2023/04/21 06:42:49;;;;;;;11.80;7.35;;;;;;;13.93;53.74;94259.66;4259395;27;20380;-63
2023/04/21 06:44:51;;;;;;;9.95;6.95;;;;;;;14.09;53.29;94257.78;4259628;27;20400;-63
2023/04/21 06:46:53;;;;;;;12.45;7.32;;;;;;;13.79;53.92;94254.47;4256797;27;20697;-64
2023/04/21 06:48:54;;;;;;;10.57;7.90;;;;;;;13.48;54.92;94255.59;4254257;27;20038;-61
2023/04/21 06:50:56;;;;;;;10.60;7.32;;;;;;;13.25;55.47;94272.34;4262352;27;20127;-62
2023/04/21 06:52:58;;;;;;;9.18;7.15;;;;;;;13.43;54.40;94258.00;4259163;27;20058;-62
2023/04/21 06:54:59;;;;;;;11.75;6.97;;;;;;;13.66;54.15;94260.44;4251588;27;20050;-60
2023/04/21 06:57:01;;;;;;;11.00;7.35;;;;;;;13.77;53.70;94252.03;4260417;27;20050;-63
2023/04/21 06:59:02;;;;;;;9.32;7.47;;;;;;;13.83;53.81;94259.19;4261756;27;20107;-63
2023/04/21 07:01:04;;;;;;;10.25;7.10;;;;;;;13.98;53.24;94253.84;4260467;27;20413;-64
2023/04/21 07:03:06;;;;;;;10.43;7.40;;;;;;;13.48;55.30;94256.41;4261434;27;20138;-63
2023/04/21 07:05:08;;;;;;;12.73;7.05;;;;;;;13.03;55.93;94258.31;4253465;27;20130;-63
2023/04/21 07:07:10;;;;;;;11.15;7.63;;;;;;;13.28;56.00;94250.13;4259596;27;20490;-61
2023/04/21 07:09:11;;;;;;;10.35;6.63;;;;;;;13.56;55.27;94246.78;4260805;27;20085;-61
2023/04/21 07:11:13;;;;;;;10.98;7.30;;;;;;;13.57;55.26;94251.03;4249814;27;20042;-61
2023/04/21 07:13:16;;;;;;;11.68;7.15;;;;;;;13.06;56.34;94260.59;4253786;27;20108;-65
2023/04/21 07:15:18;;;;;;;10.05;7.65;;;;;;;13.10;56.54;94256.59;4247359;27;20446;-62
2023/04/21 07:17:20;;;;;;;10.05;6.78;;;;;;;13.39;55.55;94246.22;4248127;27;20066;-61
2023/04/21 07:19:22;;;;;;;10.30;6.80;;;;;;;13.83;54.51;94258.34;4265800;27;20047;-62
2023/04/21 07:21:24;;;;;;;11.18;6.88;;;;;;;13.89;54.23;94254.97;4265631;27;20443;-64
2023/04/21 07:23:25;;;;;;;8.98;5.88;;;;;;;14.07;53.45;94249.25;4265491;27;20054;-62
2023/04/21 07:25:27;;;;;;;11.55;6.75;;;;;;;14.22;53.48;94252.59;4250802;27;20103;-63
2023/04/21 07:27:28;;;;;;;15.13;8.18;;;;;;;14.09;53.43;94258.56;4247896;27;20047;-62
2023/04/21 07:29:30;;;;;;;9.10;5.88;;;;;;;14.19;53.27;94257.41;4257960;27;20062;-64
2023/04/21 07:31:32;;;;;;;8.13;6.32;;;;;;;14.30;53.07;94256.88;4265567;27;20571;-60
2023/04/21 07:33:34;;;;;;;8.90;5.60;;;;;;;14.22;53.27;94249.94;4262930;27;20099;-63
2023/04/21 07:35:36;;;;;;;8.63;6.10;;;;;;;14.15;52.91;94256.97;4249649;27;20496;-62
2023/04/21 07:37:39;;;;;;;7.72;5.95;;;;;;;14.08;53.25;94256.94;4258178;27;20420;-63
2023/04/21 07:39:41;;;;;;;8.77;6.10;;;;;;;14.01;53.33;94263.16;4252672;27;20058;-62
2023/04/21 07:41:43;;;;;;;9.45;5.70;;;;;;;14.19;52.97;94250.31;4263156;27;20068;-61
2023/04/21 07:43:44;;;;;;;10.30;6.25;;;;;;;14.27;52.65;94241.47;4265530;27;20047;-63
2023/04/21 07:45:46;;;;;;;11.65;6.38;;;;;;;14.40;52.80;94254.72;4255229;27;20572;-64
2023/04/21 07:47:48;;;;;;;7.53;5.78;;;;;;;14.66;52.01;94254.09;4262980;27;20504;-63
2023/04/21 07:49:49;;;;;;;11.50;5.90;;;;;;;14.91;51.36;94254.41;4248767;27;20043;-65
2023/04/21 07:51:51;;;;;;;9.82;6.18;;;;;;;15.04;50.70;94248.38;4248906;27;20050;-63
2023/04/21 07:53:53;;;;;;;8.70;6.07;;;;;;;15.06;50.38;94243.72;4249218;27;20078;-61
2023/04/21 07:55:55;;;;;;;7.05;5.90;;;;;;;14.95;50.40;94246.94;4260958;27;20547;-64
2023/04/21 07:57:56;;;;;;;10.68;5.85;;;;;;;14.98;50.28;94256.28;4259650;27;20043;-63
2023/04/21 07:59:58;;;;;;;9.60;6.25;;;;;;;15.16;49.80;94251.25;4249471;27;20127;-63
2023/04/21 08:02:00;;;;;;;8.25;5.60;;;;;;;15.35;49.37;94241.78;4260062;27;20046;-63
2023/04/21 08:04:02;;;;;;;8.73;6.13;;;;;;;15.53;49.12;94249.94;4263171;27;20046;-63
2023/04/21 08:06:04;;;;;;;9.18;6.50;;;;;;;15.54;49.23;94256.84;4261637;27;20050;-61
2023/04/21 08:08:06;;;;;;;12.55;6.85;;;;;;;15.65;49.22;94252.78;4264338;27;20048;-64
2023/04/21 08:10:08;;;;;;;8.68;6.05;;;;;;;15.60;49.02;94249.16;4264509;27;20078;-64
2023/04/21 08:12:10;;;;;;;10.15;6.15;;;;;;;15.39;49.52;94258.84;4262486;27;20043;-64
2023/04/21 08:14:12;;;;;;;10.40;5.60;;;;;;;15.23;49.77;94248.63;4263506;27;20289;-64
2023/04/21 08:16:14;;;;;;;9.75;5.32;;;;;;;15.26;49.74;94256.16;4263415;27;20047;-64
2023/04/21 08:18:17;;;;;;;10.80;5.93;;;;;;;15.34;49.98;94245.44;4264195;27;20125;-64
2023/04/21 08:20:22;;;;;;;7.45;5.50;;;;;;;15.25;49.67;94260.63;4263179;27;20085;-63
2023/04/21 08:22:24;;;;;;;9.38;5.78;;;;;;;15.29;49.89;94243.41;4247216;27;20068;-70
2023/04/21 08:24:26;;;;;;;8.38;5.82;;;;;;;15.15;50.05;94247.81;4255646;27;20535;-62
2023/04/21 08:26:29;;;;;;;8.07;5.30;;;;;;;15.19;50.05;94240.31;4262866;27;20046;-63
2023/04/21 08:28:30;;;;;;;10.38;5.30;;;;;;;15.31;50.08;94249.25;4262163;27;20039;-64
2023/04/21 08:30:32;;;;;;;8.02;5.10;;;;;;;15.17;49.93;94246.81;4260363;27;20043;-63
2023/04/21 08:32:34;;;;;;;6.35;4.95;;;;;;;15.16;50.41;94240.69;4255743;27;20042;-65
2023/04/21 08:34:35;;;;;;;8.52;5.47;;;;;;;15.10;50.23;94231.78;4263126;27;20049;-64
2023/04/21 08:36:37;;;;;;;9.10;5.20;;;;;;;15.19;49.65;94253.50;4263264;27;20530;-64
2023/04/21 08:38:41;;;;;;;7.28;5.28;;;;;;;14.91;50.25;94248.34;4264318;27;20042;-63
2023/04/21 08:40:43;;;;;;;8.15;5.22;;;;;;;14.98;50.48;94243.91;4264316;27;20046;-63
2023/04/21 08:42:46;;;;;;;13.80;5.80;;;;;;;15.14;50.42;94238.28;4250877;27;20470;-64
2023/04/21 08:44:48;;;;;;;11.65;7.05;;;;;;;15.25;50.10;94247.44;4247813;27;20403;-64
2023/04/21 08:46:51;;;;;;;9.90;5.35;;;;;;;14.98;50.22;94238.63;4264335;27;20133;-65
2023/04/21 08:48:53;;;;;;;8.77;5.40;;;;;;;14.80;50.75;94244.44;4262611;27;20074;-63
2023/04/21 08:50:56;;;;;;;11.95;5.70;;;;;;;14.54;50.99;94247.72;4261532;27;20042;-64
2023/04/21 08:52:57;;;;;;;10.20;5.72;;;;;;;14.28;52.43;94245.72;4260813;27;20042;-63
2023/04/21 08:54:59;;;;;;;10.65;5.68;;;;;;;14.40;52.03;94238.91;4262948;27;20122;-63
2023/04/21 08:57:02;;;;;;;9.63;5.82;;;;;;;14.60;51.67;94238.25;4255059;27;20076;-62
2023/04/21 08:59:15;;;;;;;11.52;5.75;;;;;;;14.93;51.53;94233.13;4260152;27;20047;-64
2023/04/21 09:01:17;;;;;;;7.90;5.00;;;;;;;15.14;50.53;94226.88;4262956;27;20480;-64
2023/04/21 09:03:26;;;;;;;8.95;5.30;;;;;;;15.61;50.04;94227.00;4262694;27;20046;-66
2023/04/21 09:05:32;;;;;;;8.45;5.35;;;;;;;15.70;49.47;94225.78;4260415;27;20463;-63
2023/04/21 09:07:37;;;;;;;7.68;5.20;;;;;;;15.24;49.97;94237.88;4248506;27;20051;-63
2023/04/21 09:09:55;;;;;;;10.00;5.38;;;;;;;15.05;51.15;94223.63;4251984;27;20577;-61
2023/04/21 09:11:57;;;;;;;8.95;5.10;;;;;;;15.29;50.02;94229.38;4262862;27;20480;-63
2023/04/21 09:13:59;;;;;;;13.18;5.25;;;;;;;15.66;49.60;94212.19;4263130;27;20471;-62
2023/04/21 09:16:03;;;;;;;8.02;5.32;;;;;;;16.03;48.67;94217.09;4263469;27;20050;-61
2023/04/21 09:18:20;;;;;;;7.47;5.10;;;;;;;16.15;48.92;94223.38;4263842;27;20046;-62
2023/04/21 09:20:22;;;;;;;5.47;4.45;;;;;;;16.16;47.75;94217.88;4263299;27;20122;-62
2023/04/21 09:22:26;;;;;;;8.35;4.68;;;;;;;15.99;47.43;94218.53;4262036;27;20107;-62
2023/04/21 09:24:28;;;;;;;7.82;4.75;;;;;;;16.00;47.22;94212.22;4263502;27;20054;-62
2023/04/21 09:26:31;;;;;;;7.30;4.30;;;;;;;16.30;46.87;94205.44;4260157;27;20049;-60
2023/04/21 09:28:34;;;;;;;6.53;4.25;;;;;;;16.39;45.90;94200.78;4249563;27;20047;-62
2023/04/21 09:30:37;;;;;;;8.18;4.47;;;;;;;16.45;45.67;94196.47;4262797;27;20047;-61